sensor_id;sensor_type;location;lat;lon;timestamp;P1;durP1;ratioP1;P2;durP2;ratioP2
18162;SDS011;9206;50.994;4.538;2022-11-20T00:01:29;24.47;;;18.43;;
18162;SDS011;9206;50.994;4.538;2022-11-20T00:04:18;27.17;;;18.27;;
18162;SDS011;9206;50.994;4.538;2022-11-20T00:09:55;26.80;;;18.53;;
18162;SDS011;9206;50.994;4.538;2022-11-20T00:12:46;27.27;;;18.73;;
18162;SDS011;9206;50.994;4.538;2022-11-20T00:15:34;29.33;;;18.57;;
18162;SDS011;9206;50.994;4.538;2022-11-20T00:18:27;34.93;;;18.60;;
18162;SDS011;9206;50.994;4.538;2022-11-20T00:21:23;27.57;;;18.33;;
18162;SDS011;9206;50.994;4.538;2022-11-20T00:24:25;23.97;;;17.50;;
18162;SDS011;9206;50.994;4.538;2022-11-20T00:27:16;27.03;;;18.50;;
18162;SDS011;9206;50.994;4.538;2022-11-20T00:30:04;27.13;;;18.93;;
18162;SDS011;9206;50.994;4.538;2022-11-20T00:32:57;27.60;;;17.77;;
18162;SDS011;9206;50.994;4.538;2022-11-20T00:35:50;27.87;;;19.17;;
18162;SDS011;9206;50.994;4.538;2022-11-20T00:38:37;23.47;;;17.60;;
18162;SDS011;9206;50.994;4.538;2022-11-20T00:41:25;24.43;;;18.13;;
18162;SDS011;9206;50.994;4.538;2022-11-20T00:44:12;24.60;;;17.30;;
18162;SDS011;9206;50.994;4.538;2022-11-20T00:47:02;24.57;;;16.93;;
18162;SDS011;9206;50.994;4.538;2022-11-20T00:49:50;24.70;;;17.67;;
18162;SDS011;9206;50.994;4.538;2022-11-20T00:52:38;26.83;;;18.13;;
18162;SDS011;9206;50.994;4.538;2022-11-20T00:55:31;24.87;;;18.60;;
18162;SDS011;9206;50.994;4.538;2022-11-20T00:58:21;25.77;;;18.07;;
18162;SDS011;9206;50.994;4.538;2022-11-20T01:01:13;25.03;;;17.73;;
18162;SDS011;9206;50.994;4.538;2022-11-20T01:04:15;26.47;;;17.80;;
18162;SDS011;9206;50.994;4.538;2022-11-20T01:07:06;23.53;;;17.13;;
18162;SDS011;9206;50.994;4.538;2022-11-20T01:09:59;22.93;;;17.13;;
18162;SDS011;9206;50.994;4.538;2022-11-20T01:12:46;24.50;;;17.83;;
18162;SDS011;9206;50.994;4.538;2022-11-20T01:15:55;27.37;;;17.87;;
18162;SDS011;9206;50.994;4.538;2022-11-20T01:18:51;29.23;;;18.20;;
18162;SDS011;9206;50.994;4.538;2022-11-20T01:21:47;24.20;;;17.63;;
18162;SDS011;9206;50.994;4.538;2022-11-20T01:24:37;28.93;;;18.60;;
18162;SDS011;9206;50.994;4.538;2022-11-20T01:27:40;24.93;;;18.03;;
18162;SDS011;9206;50.994;4.538;2022-11-20T01:30:27;29.03;;;18.87;;
18162;SDS011;9206;50.994;4.538;2022-11-20T01:33:21;22.53;;;16.40;;
18162;SDS011;9206;50.994;4.538;2022-11-20T01:36:10;25.37;;;17.77;;
18162;SDS011;9206;50.994;4.538;2022-11-20T01:38:58;25.67;;;18.10;;
18162;SDS011;9206;50.994;4.538;2022-11-20T01:41:50;26.00;;;18.33;;
18162;SDS011;9206;50.994;4.538;2022-11-20T01:44:58;31.40;;;19.23;;
18162;SDS011;9206;50.994;4.538;2022-11-20T01:47:46;27.63;;;18.67;;
18162;SDS011;9206;50.994;4.538;2022-11-20T01:50:35;29.17;;;19.67;;
18162;SDS011;9206;50.994;4.538;2022-11-20T01:53:24;27.57;;;18.93;;
18162;SDS011;9206;50.994;4.538;2022-11-20T01:56:16;29.30;;;19.87;;
18162;SDS011;9206;50.994;4.538;2022-11-20T02:02:00;33.47;;;21.20;;
18162;SDS011;9206;50.994;4.538;2022-11-20T02:10:37;32.77;;;19.90;;
18162;SDS011;9206;50.994;4.538;2022-11-20T02:16:31;30.47;;;18.93;;
18162;SDS011;9206;50.994;4.538;2022-11-20T02:19:22;37.13;;;21.03;;
18162;SDS011;9206;50.994;4.538;2022-11-20T02:22:13;34.50;;;20.93;;
18162;SDS011;9206;50.994;4.538;2022-11-20T02:25:18;33.37;;;20.60;;
18162;SDS011;9206;50.994;4.538;2022-11-20T02:28:07;34.50;;;20.03;;
18162;SDS011;9206;50.994;4.538;2022-11-20T02:34:11;34.67;;;20.67;;
18162;SDS011;9206;50.994;4.538;2022-11-20T02:37:04;30.23;;;18.63;;
18162;SDS011;9206;50.994;4.538;2022-11-20T02:39:53;33.77;;;19.80;;
18162;SDS011;9206;50.994;4.538;2022-11-20T02:42:45;33.53;;;19.03;;
18162;SDS011;9206;50.994;4.538;2022-11-20T02:45:32;40.27;;;20.30;;
18162;SDS011;9206;50.994;4.538;2022-11-20T02:48:21;30.30;;;20.60;;
18162;SDS011;9206;50.994;4.538;2022-11-20T02:51:14;37.60;;;20.73;;
18162;SDS011;9206;50.994;4.538;2022-11-20T02:54:02;35.47;;;20.67;;
18162;SDS011;9206;50.994;4.538;2022-11-20T02:57:01;31.37;;;20.60;;
18162;SDS011;9206;50.994;4.538;2022-11-20T02:59:50;32.90;;;20.80;;
18162;SDS011;9206;50.994;4.538;2022-11-20T03:02:44;36.33;;;21.57;;
18162;SDS011;9206;50.994;4.538;2022-11-20T03:05:31;40.77;;;21.67;;
18162;SDS011;9206;50.994;4.538;2022-11-20T03:08:26;45.87;;;23.27;;
18162;SDS011;9206;50.994;4.538;2022-11-20T03:11:19;41.97;;;23.20;;
18162;SDS011;9206;50.994;4.538;2022-11-20T03:14:09;39.67;;;22.53;;
18162;SDS011;9206;50.994;4.538;2022-11-20T03:16:58;39.20;;;23.70;;
18162;SDS011;9206;50.994;4.538;2022-11-20T03:19:48;45.07;;;25.00;;
18162;SDS011;9206;50.994;4.538;2022-11-20T03:22:41;47.53;;;24.43;;
18162;SDS011;9206;50.994;4.538;2022-11-20T03:25:34;40.27;;;23.67;;
18162;SDS011;9206;50.994;4.538;2022-11-20T03:31:34;41.20;;;23.70;;
18162;SDS011;9206;50.994;4.538;2022-11-20T03:34:26;44.93;;;24.53;;
18162;SDS011;9206;50.994;4.538;2022-11-20T03:37:14;41.80;;;22.93;;
18162;SDS011;9206;50.994;4.538;2022-11-20T03:40:03;41.73;;;23.43;;
18162;SDS011;9206;50.994;4.538;2022-11-20T03:42:52;44.03;;;24.33;;
18162;SDS011;9206;50.994;4.538;2022-11-20T03:45:43;44.00;;;24.27;;
18162;SDS011;9206;50.994;4.538;2022-11-20T03:48:31;44.10;;;24.33;;
18162;SDS011;9206;50.994;4.538;2022-11-20T03:51:26;42.73;;;22.93;;
18162;SDS011;9206;50.994;4.538;2022-11-20T03:54:16;48.47;;;22.93;;
18162;SDS011;9206;50.994;4.538;2022-11-20T04:02:43;45.00;;;24.13;;
18162;SDS011;9206;50.994;4.538;2022-11-20T04:05:32;49.43;;;23.50;;
18162;SDS011;9206;50.994;4.538;2022-11-20T04:11:14;45.47;;;22.03;;
18162;SDS011;9206;50.994;4.538;2022-11-20T04:14:02;44.03;;;23.47;;
18162;SDS011;9206;50.994;4.538;2022-11-20T04:16:51;40.40;;;24.30;;
18162;SDS011;9206;50.994;4.538;2022-11-20T04:19:41;46.03;;;23.57;;
18162;SDS011;9206;50.994;4.538;2022-11-20T04:22:31;47.77;;;24.97;;
18162;SDS011;9206;50.994;4.538;2022-11-20T04:25:20;47.30;;;23.33;;
18162;SDS011;9206;50.994;4.538;2022-11-20T04:28:08;44.97;;;23.77;;
18162;SDS011;9206;50.994;4.538;2022-11-20T04:31:01;43.87;;;24.20;;
18162;SDS011;9206;50.994;4.538;2022-11-20T04:33:49;41.50;;;23.60;;
18162;SDS011;9206;50.994;4.538;2022-11-20T04:39:27;43.57;;;23.13;;
18162;SDS011;9206;50.994;4.538;2022-11-20T04:42:22;43.43;;;22.43;;
18162;SDS011;9206;50.994;4.538;2022-11-20T04:45:21;36.97;;;22.23;;
18162;SDS011;9206;50.994;4.538;2022-11-20T04:48:10;38.53;;;22.47;;
18162;SDS011;9206;50.994;4.538;2022-11-20T04:50:57;36.17;;;21.60;;
18162;SDS011;9206;50.994;4.538;2022-11-20T04:53:50;36.47;;;21.33;;
18162;SDS011;9206;50.994;4.538;2022-11-20T04:59:30;42.00;;;22.97;;
18162;SDS011;9206;50.994;4.538;2022-11-20T05:02:20;35.07;;;20.20;;
18162;SDS011;9206;50.994;4.538;2022-11-20T05:05:11;39.17;;;21.27;;
18162;SDS011;9206;50.994;4.538;2022-11-20T05:08:04;50.60;;;23.73;;
18162;SDS011;9206;50.994;4.538;2022-11-20T05:10:51;42.57;;;22.50;;
18162;SDS011;9206;50.994;4.538;2022-11-20T05:13:42;44.37;;;23.43;;
18162;SDS011;9206;50.994;4.538;2022-11-20T05:16:30;38.97;;;21.67;;
18162;SDS011;9206;50.994;4.538;2022-11-20T05:27:52;40.37;;;22.60;;
18162;SDS011;9206;50.994;4.538;2022-11-20T05:30:42;39.40;;;23.30;;
18162;SDS011;9206;50.994;4.538;2022-11-20T05:33:34;42.30;;;22.47;;
18162;SDS011;9206;50.994;4.538;2022-11-20T05:36:23;48.90;;;24.93;;
18162;SDS011;9206;50.994;4.538;2022-11-20T05:39:10;44.23;;;23.40;;
18162;SDS011;9206;50.994;4.538;2022-11-20T05:45:06;50.93;;;25.30;;
18162;SDS011;9206;50.994;4.538;2022-11-20T05:47:56;52.07;;;25.13;;
18162;SDS011;9206;50.994;4.538;2022-11-20T05:50:46;50.50;;;24.83;;
18162;SDS011;9206;50.994;4.538;2022-11-20T05:53:34;48.10;;;24.33;;
18162;SDS011;9206;50.994;4.538;2022-11-20T05:56:38;51.00;;;24.60;;
18162;SDS011;9206;50.994;4.538;2022-11-20T05:59:26;50.67;;;25.17;;
18162;SDS011;9206;50.994;4.538;2022-11-20T06:02:13;49.93;;;26.73;;
18162;SDS011;9206;50.994;4.538;2022-11-20T06:05:00;51.10;;;25.13;;
18162;SDS011;9206;50.994;4.538;2022-11-20T06:07:49;51.33;;;25.30;;
18162;SDS011;9206;50.994;4.538;2022-11-20T06:10:37;41.90;;;23.13;;
18162;SDS011;9206;50.994;4.538;2022-11-20T06:13:35;45.03;;;24.17;;
18162;SDS011;9206;50.994;4.538;2022-11-20T06:16:23;51.30;;;26.20;;
18162;SDS011;9206;50.994;4.538;2022-11-20T06:19:11;47.20;;;26.20;;
18162;SDS011;9206;50.994;4.538;2022-11-20T06:22:04;53.73;;;26.57;;
18162;SDS011;9206;50.994;4.538;2022-11-20T06:24:54;46.87;;;24.97;;
18162;SDS011;9206;50.994;4.538;2022-11-20T06:27:47;53.83;;;25.20;;
18162;SDS011;9206;50.994;4.538;2022-11-20T06:30:34;49.73;;;24.37;;
18162;SDS011;9206;50.994;4.538;2022-11-20T06:33:23;53.47;;;26.50;;
18162;SDS011;9206;50.994;4.538;2022-11-20T06:36:14;53.57;;;25.43;;
18162;SDS011;9206;50.994;4.538;2022-11-20T06:39:02;46.40;;;24.83;;
18162;SDS011;9206;50.994;4.538;2022-11-20T06:44:44;59.87;;;27.93;;
18162;SDS011;9206;50.994;4.538;2022-11-20T06:47:31;56.87;;;27.00;;
18162;SDS011;9206;50.994;4.538;2022-11-20T06:50:19;53.70;;;25.47;;
18162;SDS011;9206;50.994;4.538;2022-11-20T06:53:12;55.10;;;25.57;;
18162;SDS011;9206;50.994;4.538;2022-11-20T06:56:02;50.17;;;24.80;;
18162;SDS011;9206;50.994;4.538;2022-11-20T06:58:52;54.57;;;26.03;;
18162;SDS011;9206;50.994;4.538;2022-11-20T07:01:40;46.53;;;25.47;;
18162;SDS011;9206;50.994;4.538;2022-11-20T07:04:27;45.57;;;24.93;;
18162;SDS011;9206;50.994;4.538;2022-11-20T07:07:20;53.97;;;24.50;;
18162;SDS011;9206;50.994;4.538;2022-11-20T07:10:08;50.43;;;24.87;;
18162;SDS011;9206;50.994;4.538;2022-11-20T07:12:58;51.17;;;25.33;;
18162;SDS011;9206;50.994;4.538;2022-11-20T07:15:49;48.67;;;24.43;;
18162;SDS011;9206;50.994;4.538;2022-11-20T07:18:42;48.57;;;25.53;;
18162;SDS011;9206;50.994;4.538;2022-11-20T07:21:35;55.27;;;25.27;;
18162;SDS011;9206;50.994;4.538;2022-11-20T07:24:24;51.20;;;26.17;;
18162;SDS011;9206;50.994;4.538;2022-11-20T07:30:07;43.63;;;24.17;;
18162;SDS011;9206;50.994;4.538;2022-11-20T07:32:56;47.37;;;23.67;;
18162;SDS011;9206;50.994;4.538;2022-11-20T07:35:44;42.47;;;22.57;;
18162;SDS011;9206;50.994;4.538;2022-11-20T07:38:31;44.43;;;22.73;;
18162;SDS011;9206;50.994;4.538;2022-11-20T07:41:19;45.67;;;23.37;;
18162;SDS011;9206;50.994;4.538;2022-11-20T07:44:07;47.73;;;22.97;;
18162;SDS011;9206;50.994;4.538;2022-11-20T07:46:56;47.20;;;21.60;;
18162;SDS011;9206;50.994;4.538;2022-11-20T07:49:45;54.27;;;23.20;;
18162;SDS011;9206;50.994;4.538;2022-11-20T07:52:35;47.27;;;23.57;;
18162;SDS011;9206;50.994;4.538;2022-11-20T07:55:30;55.83;;;23.97;;
18162;SDS011;9206;50.994;4.538;2022-11-20T07:58:24;51.60;;;23.53;;
18162;SDS011;9206;50.994;4.538;2022-11-20T08:01:14;66.10;;;24.37;;
18162;SDS011;9206;50.994;4.538;2022-11-20T08:04:02;54.43;;;23.97;;
18162;SDS011;9206;50.994;4.538;2022-11-20T08:06:51;64.40;;;24.57;;
18162;SDS011;9206;50.994;4.538;2022-11-20T08:09:38;61.20;;;25.63;;
18162;SDS011;9206;50.994;4.538;2022-11-20T08:12:25;67.80;;;26.07;;
18162;SDS011;9206;50.994;4.538;2022-11-20T08:15:30;71.10;;;24.87;;
18162;SDS011;9206;50.994;4.538;2022-11-20T08:18:18;72.53;;;25.33;;
18162;SDS011;9206;50.994;4.538;2022-11-20T08:21:05;61.20;;;24.63;;
18162;SDS011;9206;50.994;4.538;2022-11-20T08:23:54;58.20;;;25.50;;
18162;SDS011;9206;50.994;4.538;2022-11-20T08:26:41;69.63;;;26.23;;
18162;SDS011;9206;50.994;4.538;2022-11-20T08:29:29;61.93;;;24.37;;
18162;SDS011;9206;50.994;4.538;2022-11-20T08:32:16;71.73;;;25.13;;
18162;SDS011;9206;50.994;4.538;2022-11-20T08:35:04;67.43;;;24.70;;
18162;SDS011;9206;50.994;4.538;2022-11-20T08:37:51;68.10;;;27.07;;
18162;SDS011;9206;50.994;4.538;2022-11-20T08:40:40;65.20;;;24.40;;
18162;SDS011;9206;50.994;4.538;2022-11-20T08:43:47;69.80;;;25.47;;
18162;SDS011;9206;50.994;4.538;2022-11-20T08:46:35;70.03;;;25.20;;
18162;SDS011;9206;50.994;4.538;2022-11-20T08:49:23;65.17;;;26.07;;
18162;SDS011;9206;50.994;4.538;2022-11-20T08:52:11;61.50;;;24.73;;
18162;SDS011;9206;50.994;4.538;2022-11-20T08:54:58;66.87;;;26.13;;
18162;SDS011;9206;50.994;4.538;2022-11-20T08:57:47;70.17;;;26.27;;
18162;SDS011;9206;50.994;4.538;2022-11-20T09:00:34;77.33;;;29.13;;
18162;SDS011;9206;50.994;4.538;2022-11-20T09:03:21;69.60;;;25.17;;
18162;SDS011;9206;50.994;4.538;2022-11-20T09:06:12;78.63;;;28.37;;
18162;SDS011;9206;50.994;4.538;2022-11-20T09:09:01;76.80;;;28.33;;
18162;SDS011;9206;50.994;4.538;2022-11-20T09:11:55;67.63;;;26.47;;
18162;SDS011;9206;50.994;4.538;2022-11-20T09:14:44;71.57;;;25.20;;
18162;SDS011;9206;50.994;4.538;2022-11-20T09:17:31;76.53;;;28.03;;
18162;SDS011;9206;50.994;4.538;2022-11-20T09:20:18;82.23;;;26.80;;
18162;SDS011;9206;50.994;4.538;2022-11-20T09:23:06;76.60;;;29.33;;
18162;SDS011;9206;50.994;4.538;2022-11-20T09:26:01;81.00;;;27.53;;
18162;SDS011;9206;50.994;4.538;2022-11-20T09:28:52;81.77;;;27.90;;
18162;SDS011;9206;50.994;4.538;2022-11-20T09:31:42;74.00;;;27.93;;
18162;SDS011;9206;50.994;4.538;2022-11-20T09:34:36;75.93;;;26.57;;
18162;SDS011;9206;50.994;4.538;2022-11-20T09:37:23;73.80;;;27.10;;
18162;SDS011;9206;50.994;4.538;2022-11-20T09:40:17;72.23;;;27.83;;
18162;SDS011;9206;50.994;4.538;2022-11-20T09:43:12;74.07;;;27.77;;
18162;SDS011;9206;50.994;4.538;2022-11-20T09:46:07;79.57;;;25.37;;
18162;SDS011;9206;50.994;4.538;2022-11-20T09:49:07;79.80;;;27.93;;
18162;SDS011;9206;50.994;4.538;2022-11-20T09:52:14;73.10;;;27.30;;
18162;SDS011;9206;50.994;4.538;2022-11-20T09:55:08;98.43;;;28.57;;
18162;SDS011;9206;50.994;4.538;2022-11-20T09:57:59;77.07;;;27.67;;
18162;SDS011;9206;50.994;4.538;2022-11-20T10:00:46;76.43;;;27.33;;
18162;SDS011;9206;50.994;4.538;2022-11-20T10:03:50;78.57;;;27.40;;
18162;SDS011;9206;50.994;4.538;2022-11-20T10:06:44;78.37;;;28.67;;
18162;SDS011;9206;50.994;4.538;2022-11-20T10:09:37;72.97;;;26.83;;
18162;SDS011;9206;50.994;4.538;2022-11-20T10:12:31;74.03;;;28.27;;
18162;SDS011;9206;50.994;4.538;2022-11-20T10:15:33;67.47;;;25.27;;
18162;SDS011;9206;50.994;4.538;2022-11-20T10:18:32;71.43;;;27.57;;
18162;SDS011;9206;50.994;4.538;2022-11-20T10:21:33;72.73;;;26.20;;
18162;SDS011;9206;50.994;4.538;2022-11-20T10:24:37;70.73;;;25.37;;
18162;SDS011;9206;50.994;4.538;2022-11-20T10:27:44;67.03;;;25.30;;
18162;SDS011;9206;50.994;4.538;2022-11-20T10:30:45;62.73;;;25.37;;
18162;SDS011;9206;50.994;4.538;2022-11-20T10:33:40;67.93;;;26.33;;
18162;SDS011;9206;50.994;4.538;2022-11-20T10:36:33;70.07;;;25.03;;
18162;SDS011;9206;50.994;4.538;2022-11-20T10:39:30;62.13;;;25.53;;
18162;SDS011;9206;50.994;4.538;2022-11-20T10:42:25;61.83;;;25.40;;
18162;SDS011;9206;50.994;4.538;2022-11-20T10:45:18;68.03;;;23.93;;
18162;SDS011;9206;50.994;4.538;2022-11-20T10:48:19;55.90;;;22.77;;
18162;SDS011;9206;50.994;4.538;2022-11-20T10:51:12;57.43;;;22.90;;
18162;SDS011;9206;50.994;4.538;2022-11-20T10:54:11;46.93;;;20.83;;
18162;SDS011;9206;50.994;4.538;2022-11-20T10:57:10;51.53;;;23.33;;
18162;SDS011;9206;50.994;4.538;2022-11-20T11:00:13;51.03;;;22.13;;
18162;SDS011;9206;50.994;4.538;2022-11-20T11:06:06;44.70;;;21.37;;
18162;SDS011;9206;50.994;4.538;2022-11-20T11:12:20;41.13;;;20.10;;
18162;SDS011;9206;50.994;4.538;2022-11-20T11:15:13;40.57;;;20.57;;
18162;SDS011;9206;50.994;4.538;2022-11-20T11:21:24;30.17;;;17.33;;
18162;SDS011;9206;50.994;4.538;2022-11-20T11:24:18;34.10;;;17.10;;
18162;SDS011;9206;50.994;4.538;2022-11-20T11:27:11;33.80;;;18.77;;
18162;SDS011;9206;50.994;4.538;2022-11-20T11:30:13;44.80;;;25.20;;
18162;SDS011;9206;50.994;4.538;2022-11-20T11:33:03;37.23;;;20.83;;
18162;SDS011;9206;50.994;4.538;2022-11-20T11:35:55;26.73;;;15.77;;
18162;SDS011;9206;50.994;4.538;2022-11-20T11:38:44;23.60;;;13.67;;
18162;SDS011;9206;50.994;4.538;2022-11-20T11:41:33;26.47;;;14.23;;
18162;SDS011;9206;50.994;4.538;2022-11-20T11:44:21;21.27;;;14.37;;
18162;SDS011;9206;50.994;4.538;2022-11-20T11:47:35;28.03;;;17.87;;
18162;SDS011;9206;50.994;4.538;2022-11-20T11:50:29;20.43;;;13.00;;
18162;SDS011;9206;50.994;4.538;2022-11-20T11:53:17;16.43;;;9.47;;
18162;SDS011;9206;50.994;4.538;2022-11-20T11:56:08;9.37;;;7.20;;
18162;SDS011;9206;50.994;4.538;2022-11-20T11:58:57;8.57;;;6.47;;
18162;SDS011;9206;50.994;4.538;2022-11-20T12:01:59;10.40;;;4.90;;
18162;SDS011;9206;50.994;4.538;2022-11-20T12:04:57;4.03;;;3.77;;
18162;SDS011;9206;50.994;4.538;2022-11-20T12:07:49;7.27;;;3.77;;
18162;SDS011;9206;50.994;4.538;2022-11-20T12:10:41;8.57;;;3.27;;
18162;SDS011;9206;50.994;4.538;2022-11-20T12:13:44;3.10;;;2.70;;
18162;SDS011;9206;50.994;4.538;2022-11-20T12:16:37;5.27;;;2.73;;
18162;SDS011;9206;50.994;4.538;2022-11-20T12:19:27;4.17;;;3.00;;
18162;SDS011;9206;50.994;4.538;2022-11-20T12:22:21;3.17;;;2.87;;
18162;SDS011;9206;50.994;4.538;2022-11-20T12:25:24;2.50;;;2.30;;
18162;SDS011;9206;50.994;4.538;2022-11-20T12:28:34;7.93;;;2.80;;
18162;SDS011;9206;50.994;4.538;2022-11-20T12:31:42;6.83;;;2.97;;
18162;SDS011;9206;50.994;4.538;2022-11-20T12:34:43;6.30;;;2.83;;
18162;SDS011;9206;50.994;4.538;2022-11-20T12:37:48;3.57;;;2.63;;
18162;SDS011;9206;50.994;4.538;2022-11-20T12:40:46;4.00;;;3.10;;
18162;SDS011;9206;50.994;4.538;2022-11-20T12:43:42;6.90;;;3.00;;
18162;SDS011;9206;50.994;4.538;2022-11-20T12:46:55;2.80;;;2.60;;
18162;SDS011;9206;50.994;4.538;2022-11-20T12:49:59;3.43;;;2.83;;
18162;SDS011;9206;50.994;4.538;2022-11-20T12:52:53;3.33;;;2.70;;
18162;SDS011;9206;50.994;4.538;2022-11-20T12:55:46;13.10;;;9.17;;
18162;SDS011;9206;50.994;4.538;2022-11-20T12:58:39;9.83;;;8.57;;
18162;SDS011;9206;50.994;4.538;2022-11-20T13:01:37;14.67;;;9.60;;
18162;SDS011;9206;50.994;4.538;2022-11-20T13:07:53;6.57;;;5.97;;
18162;SDS011;9206;50.994;4.538;2022-11-20T13:10:43;3.70;;;3.40;;
18162;SDS011;9206;50.994;4.538;2022-11-20T13:13:41;17.87;;;14.33;;
18162;SDS011;9206;50.994;4.538;2022-11-20T13:16:36;15.73;;;8.73;;
18162;SDS011;9206;50.994;4.538;2022-11-20T13:19:31;19.17;;;9.27;;
18162;SDS011;9206;50.994;4.538;2022-11-20T13:22:24;10.87;;;6.50;;
18162;SDS011;9206;50.994;4.538;2022-11-20T13:25:23;11.27;;;5.87;;
18162;SDS011;9206;50.994;4.538;2022-11-20T13:28:27;9.03;;;6.17;;
18162;SDS011;9206;50.994;4.538;2022-11-20T13:31:24;15.03;;;8.30;;
18162;SDS011;9206;50.994;4.538;2022-11-20T13:34:22;64.30;;;29.20;;
18162;SDS011;9206;50.994;4.538;2022-11-20T13:37:24;64.63;;;27.87;;
18162;SDS011;9206;50.994;4.538;2022-11-20T13:40:26;18.43;;;12.00;;
18162;SDS011;9206;50.994;4.538;2022-11-20T13:43:25;9.57;;;8.47;;
18162;SDS011;9206;50.994;4.538;2022-11-20T13:46:15;7.23;;;6.33;;
18162;SDS011;9206;50.994;4.538;2022-11-20T13:49:10;13.43;;;7.90;;
18162;SDS011;9206;50.994;4.538;2022-11-20T13:52:08;6.97;;;6.27;;
18162;SDS011;9206;50.994;4.538;2022-11-20T13:55:20;5.87;;;5.43;;
18162;SDS011;9206;50.994;4.538;2022-11-20T13:58:18;7.87;;;4.67;;
18162;SDS011;9206;50.994;4.538;2022-11-20T14:01:19;4.33;;;3.93;;
18162;SDS011;9206;50.994;4.538;2022-11-20T14:04:12;6.60;;;5.87;;
18162;SDS011;9206;50.994;4.538;2022-11-20T14:07:04;10.17;;;7.97;;
18162;SDS011;9206;50.994;4.538;2022-11-20T14:09:53;3.77;;;3.40;;
18162;SDS011;9206;50.994;4.538;2022-11-20T14:12:44;7.20;;;6.50;;
18162;SDS011;9206;50.994;4.538;2022-11-20T14:15:35;17.73;;;11.40;;
18162;SDS011;9206;50.994;4.538;2022-11-20T14:18:25;4.97;;;4.40;;
18162;SDS011;9206;50.994;4.538;2022-11-20T14:21:22;4.83;;;4.43;;
18162;SDS011;9206;50.994;4.538;2022-11-20T14:24:11;5.07;;;2.97;;
18162;SDS011;9206;50.994;4.538;2022-11-20T14:27:01;2.93;;;2.57;;
18162;SDS011;9206;50.994;4.538;2022-11-20T14:29:50;2.97;;;2.77;;
18162;SDS011;9206;50.994;4.538;2022-11-20T14:32:39;2.87;;;2.67;;
18162;SDS011;9206;50.994;4.538;2022-11-20T14:35:28;2.73;;;2.53;;
18162;SDS011;9206;50.994;4.538;2022-11-20T14:38:18;2.50;;;2.40;;
18162;SDS011;9206;50.994;4.538;2022-11-20T14:41:14;2.77;;;2.50;;
18162;SDS011;9206;50.994;4.538;2022-11-20T14:44:04;2.77;;;2.53;;
18162;SDS011;9206;50.994;4.538;2022-11-20T14:46:54;2.53;;;2.40;;
18162;SDS011;9206;50.994;4.538;2022-11-20T14:49:46;2.37;;;2.27;;
18162;SDS011;9206;50.994;4.538;2022-11-20T14:52:34;5.90;;;2.70;;
18162;SDS011;9206;50.994;4.538;2022-11-20T14:55:26;3.97;;;2.53;;
18162;SDS011;9206;50.994;4.538;2022-11-20T14:58:20;2.90;;;2.70;;
18162;SDS011;9206;50.994;4.538;2022-11-20T15:01:11;2.97;;;2.77;;
18162;SDS011;9206;50.994;4.538;2022-11-20T15:04:04;3.50;;;2.83;;
18162;SDS011;9206;50.994;4.538;2022-11-20T15:06:57;3.53;;;3.30;;
18162;SDS011;9206;50.994;4.538;2022-11-20T15:13:16;3.57;;;3.30;;
18162;SDS011;9206;50.994;4.538;2022-11-20T15:16:13;4.60;;;3.40;;
18162;SDS011;9206;50.994;4.538;2022-11-20T15:19:07;3.67;;;3.33;;
18162;SDS011;9206;50.994;4.538;2022-11-20T15:22:08;2.87;;;2.77;;
18162;SDS011;9206;50.994;4.538;2022-11-20T15:25:05;3.80;;;3.60;;
18162;SDS011;9206;50.994;4.538;2022-11-20T15:27:58;3.60;;;3.40;;
18162;SDS011;9206;50.994;4.538;2022-11-20T15:30:46;3.63;;;3.33;;
18162;SDS011;9206;50.994;4.538;2022-11-20T15:33:34;3.80;;;3.50;;
18162;SDS011;9206;50.994;4.538;2022-11-20T15:36:24;3.70;;;3.50;;
18162;SDS011;9206;50.994;4.538;2022-11-20T15:39:15;4.07;;;3.77;;
18162;SDS011;9206;50.994;4.538;2022-11-20T15:42:03;4.37;;;3.97;;
18162;SDS011;9206;50.994;4.538;2022-11-20T15:45:09;4.90;;;3.73;;
18162;SDS011;9206;50.994;4.538;2022-11-20T15:47:59;4.30;;;3.90;;
18162;SDS011;9206;50.994;4.538;2022-11-20T15:50:56;5.97;;;4.27;;
18162;SDS011;9206;50.994;4.538;2022-11-20T15:53:49;4.43;;;4.00;;
18162;SDS011;9206;50.994;4.538;2022-11-20T15:56:38;9.03;;;3.87;;
18162;SDS011;9206;50.994;4.538;2022-11-20T15:59:27;4.43;;;4.03;;
18162;SDS011;9206;50.994;4.538;2022-11-20T16:02:15;4.60;;;4.20;;
18162;SDS011;9206;50.994;4.538;2022-11-20T16:05:08;4.67;;;4.03;;
18162;SDS011;9206;50.994;4.538;2022-11-20T16:07:57;4.37;;;4.07;;
18162;SDS011;9206;50.994;4.538;2022-11-20T16:10:45;5.27;;;4.07;;
18162;SDS011;9206;50.994;4.538;2022-11-20T16:13:38;6.37;;;3.57;;
18162;SDS011;9206;50.994;4.538;2022-11-20T16:16:43;6.87;;;3.97;;
18162;SDS011;9206;50.994;4.538;2022-11-20T16:19:30;9.00;;;3.80;;
18162;SDS011;9206;50.994;4.538;2022-11-20T16:22:21;8.40;;;4.50;;
18162;SDS011;9206;50.994;4.538;2022-11-20T16:25:08;9.90;;;4.30;;
18162;SDS011;9206;50.994;4.538;2022-11-20T16:27:57;3.77;;;3.47;;
18162;SDS011;9206;50.994;4.538;2022-11-20T16:30:46;6.27;;;4.57;;
18162;SDS011;9206;50.994;4.538;2022-11-20T16:33:33;6.07;;;3.33;;
18162;SDS011;9206;50.994;4.538;2022-11-20T16:36:21;9.47;;;3.70;;
18162;SDS011;9206;50.994;4.538;2022-11-20T16:39:10;6.30;;;3.67;;
18162;SDS011;9206;50.994;4.538;2022-11-20T16:42:01;7.13;;;3.90;;
18162;SDS011;9206;50.994;4.538;2022-11-20T16:44:52;14.90;;;4.83;;
18162;SDS011;9206;50.994;4.538;2022-11-20T16:47:41;7.27;;;4.07;;
18162;SDS011;9206;50.994;4.538;2022-11-20T16:50:28;11.70;;;3.97;;
18162;SDS011;9206;50.994;4.538;2022-11-20T16:53:17;9.37;;;3.70;;
18162;SDS011;9206;50.994;4.538;2022-11-20T16:56:09;18.53;;;4.20;;
18162;SDS011;9206;50.994;4.538;2022-11-20T16:59:02;15.13;;;4.03;;
18162;SDS011;9206;50.994;4.538;2022-11-20T17:01:50;15.20;;;4.00;;
18162;SDS011;9206;50.994;4.538;2022-11-20T17:04:39;7.47;;;3.33;;
18162;SDS011;9206;50.994;4.538;2022-11-20T17:07:26;10.33;;;3.00;;
18162;SDS011;9206;50.994;4.538;2022-11-20T17:10:14;9.50;;;3.73;;
18162;SDS011;9206;50.994;4.538;2022-11-20T17:13:02;13.53;;;3.30;;
18162;SDS011;9206;50.994;4.538;2022-11-20T17:16:00;7.90;;;2.80;;
18162;SDS011;9206;50.994;4.538;2022-11-20T17:18:49;12.43;;;3.03;;
18162;SDS011;9206;50.994;4.538;2022-11-20T17:21:38;7.20;;;2.93;;
18162;SDS011;9206;50.994;4.538;2022-11-20T17:24:27;10.83;;;2.83;;
18162;SDS011;9206;50.994;4.538;2022-11-20T17:27:16;6.13;;;2.60;;
18162;SDS011;9206;50.994;4.538;2022-11-20T17:30:05;7.37;;;2.90;;
18162;SDS011;9206;50.994;4.538;2022-11-20T17:32:54;6.67;;;2.57;;
18162;SDS011;9206;50.994;4.538;2022-11-20T17:35:41;5.17;;;1.77;;
18162;SDS011;9206;50.994;4.538;2022-11-20T17:38:30;3.70;;;1.70;;
18162;SDS011;9206;50.994;4.538;2022-11-20T17:41:18;5.30;;;1.90;;
18162;SDS011;9206;50.994;4.538;2022-11-20T17:44:08;5.97;;;1.80;;
18162;SDS011;9206;50.994;4.538;2022-11-20T17:46:57;4.27;;;1.83;;
18162;SDS011;9206;50.994;4.538;2022-11-20T17:49:45;4.63;;;2.40;;
18162;SDS011;9206;50.994;4.538;2022-11-20T17:52:32;7.77;;;2.20;;
18162;SDS011;9206;50.994;4.538;2022-11-20T17:55:22;7.30;;;2.57;;
18162;SDS011;9206;50.994;4.538;2022-11-20T17:58:10;8.43;;;2.20;;
18162;SDS011;9206;50.994;4.538;2022-11-20T18:01:02;8.30;;;1.90;;
18162;SDS011;9206;50.994;4.538;2022-11-20T18:03:50;4.40;;;2.30;;
18162;SDS011;9206;50.994;4.538;2022-11-20T18:06:38;9.43;;;2.70;;
18162;SDS011;9206;50.994;4.538;2022-11-20T18:09:25;7.93;;;2.50;;
18162;SDS011;9206;50.994;4.538;2022-11-20T18:12:14;14.23;;;3.43;;
18162;SDS011;9206;50.994;4.538;2022-11-20T18:15:01;6.80;;;2.43;;
18162;SDS011;9206;50.994;4.538;2022-11-20T18:17:49;6.60;;;2.00;;
18162;SDS011;9206;50.994;4.538;2022-11-20T18:20:37;9.77;;;2.60;;